sensor_id;sensor_type;location;lat;lon;timestamp;temperature;humidity
31675;DHT22;18276;45.520;11.018;2022-08-19T00:02:04;22.10;94.20
31675;DHT22;18276;45.520;11.018;2022-08-19T00:04:33;22.10;93.90
31675;DHT22;18276;45.520;11.018;2022-08-19T00:07:05;22.20;93.60
31675;DHT22;18276;45.520;11.018;2022-08-19T00:09:33;22.20;93.30
31675;DHT22;18276;45.520;11.018;2022-08-19T00:12:00;22.30;92.90
31675;DHT22;18276;45.520;11.018;2022-08-19T00:14:28;22.20;92.70
31675;DHT22;18276;45.520;11.018;2022-08-19T00:16:59;22.20;92.80
31675;DHT22;18276;45.520;11.018;2022-08-19T00:19:26;22.10;92.90
31675;DHT22;18276;45.520;11.018;2022-08-19T00:21:54;22.10;93.20
31675;DHT22;18276;45.520;11.018;2022-08-19T00:24:22;22.00;93.20
31675;DHT22;18276;45.520;11.018;2022-08-19T00:26:49;22.00;93.10
31675;DHT22;18276;45.520;11.018;2022-08-19T00:29:19;22.00;92.90
31675;DHT22;18276;45.520;11.018;2022-08-19T00:31:46;22.00;92.90
31675;DHT22;18276;45.520;11.018;2022-08-19T00:34:14;22.00;92.90
31675;DHT22;18276;45.520;11.018;2022-08-19T00:36:42;22.00;93.00
31675;DHT22;18276;45.520;11.018;2022-08-19T00:39:10;22.00;92.90
31675;DHT22;18276;45.520;11.018;2022-08-19T00:41:37;22.00;92.80
31675;DHT22;18276;45.520;11.018;2022-08-19T00:44:12;22.00;93.00
31675;DHT22;18276;45.520;11.018;2022-08-19T00:46:41;22.00;93.30
31675;DHT22;18276;45.520;11.018;2022-08-19T00:49:26;22.00;93.30
31675;DHT22;18276;45.520;11.018;2022-08-19T00:51:59;22.00;92.20
31675;DHT22;18276;45.520;11.018;2022-08-19T00:54:27;22.00;92.50
31675;DHT22;18276;45.520;11.018;2022-08-19T00:56:58;22.00;93.90
31675;DHT22;18276;45.520;11.018;2022-08-19T00:59:28;22.00;96.90
31675;DHT22;18276;45.520;11.018;2022-08-19T01:02:16;21.80;99.90
31675;DHT22;18276;45.520;11.018;2022-08-19T01:04:43;21.80;99.90
31675;DHT22;18276;45.520;11.018;2022-08-19T01:07:10;21.80;99.90
31675;DHT22;18276;45.520;11.018;2022-08-19T01:09:43;21.80;99.90
31675;DHT22;18276;45.520;11.018;2022-08-19T01:12:10;21.70;99.90
31675;DHT22;18276;45.520;11.018;2022-08-19T01:14:39;21.70;99.90
31675;DHT22;18276;45.520;11.018;2022-08-19T01:17:09;21.60;99.90
31675;DHT22;18276;45.520;11.018;2022-08-19T01:19:40;21.60;99.90
31675;DHT22;18276;45.520;11.018;2022-08-19T01:24:54;21.50;99.90
31675;DHT22;18276;45.520;11.018;2022-08-19T01:27:22;21.50;99.90
31675;DHT22;18276;45.520;11.018;2022-08-19T01:29:50;21.50;99.90
31675;DHT22;18276;45.520;11.018;2022-08-19T01:32:17;21.50;99.90
31675;DHT22;18276;45.520;11.018;2022-08-19T01:35:00;21.50;99.90
31675;DHT22;18276;45.520;11.018;2022-08-19T01:37:29;21.60;99.90
31675;DHT22;18276;45.520;11.018;2022-08-19T01:39:57;21.60;99.90
31675;DHT22;18276;45.520;11.018;2022-08-19T01:42:24;21.60;99.90
31675;DHT22;18276;45.520;11.018;2022-08-19T01:44:56;21.70;99.90
31675;DHT22;18276;45.520;11.018;2022-08-19T01:47:23;21.70;99.90
31675;DHT22;18276;45.520;11.018;2022-08-19T01:49:51;21.70;99.90
31675;DHT22;18276;45.520;11.018;2022-08-19T01:52:19;21.70;99.90
31675;DHT22;18276;45.520;11.018;2022-08-19T01:54:46;21.60;99.90
31675;DHT22;18276;45.520;11.018;2022-08-19T01:57:14;21.70;99.90
31675;DHT22;18276;45.520;11.018;2022-08-19T01:59:43;21.60;99.90
31675;DHT22;18276;45.520;11.018;2022-08-19T02:02:10;21.70;99.90
31675;DHT22;18276;45.520;11.018;2022-08-19T02:04:38;21.70;99.90
31675;DHT22;18276;45.520;11.018;2022-08-19T02:07:06;21.70;99.90
31675;DHT22;18276;45.520;11.018;2022-08-19T02:09:34;21.70;99.90
31675;DHT22;18276;45.520;11.018;2022-08-19T02:12:03;21.60;99.90
31675;DHT22;18276;45.520;11.018;2022-08-19T02:14:30;21.60;99.90
31675;DHT22;18276;45.520;11.018;2022-08-19T02:16:57;21.60;99.90
31675;DHT22;18276;45.520;11.018;2022-08-19T02:19:27;21.60;99.90
31675;DHT22;18276;45.520;11.018;2022-08-19T02:21:54;21.60;99.90
31675;DHT22;18276;45.520;11.018;2022-08-19T02:24:21;21.50;99.90
31675;DHT22;18276;45.520;11.018;2022-08-19T02:26:49;21.50;99.90
31675;DHT22;18276;45.520;11.018;2022-08-19T02:29:16;21.50;99.90
31675;DHT22;18276;45.520;11.018;2022-08-19T02:31:43;21.40;99.90
31675;DHT22;18276;45.520;11.018;2022-08-19T02:34:10;21.30;99.90
31675;DHT22;18276;45.520;11.018;2022-08-19T02:36:37;21.30;99.90
31675;DHT22;18276;45.520;11.018;2022-08-19T02:39:09;21.30;99.90
31675;DHT22;18276;45.520;11.018;2022-08-19T02:41:36;21.30;99.90
31675;DHT22;18276;45.520;11.018;2022-08-19T02:44:03;21.30;99.90
31675;DHT22;18276;45.520;11.018;2022-08-19T02:46:51;21.20;99.90
31675;DHT22;18276;45.520;11.018;2022-08-19T02:49:19;21.20;99.90
31675;DHT22;18276;45.520;11.018;2022-08-19T02:51:46;21.20;99.90
31675;DHT22;18276;45.520;11.018;2022-08-19T02:54:14;21.10;99.90
31675;DHT22;18276;45.520;11.018;2022-08-19T02:56:43;21.10;99.90
31675;DHT22;18276;45.520;11.018;2022-08-19T02:59:11;21.00;99.90
31675;DHT22;18276;45.520;11.018;2022-08-19T03:01:40;21.00;99.90
31675;DHT22;18276;45.520;11.018;2022-08-19T03:04:11;21.10;99.90
31675;DHT22;18276;45.520;11.018;2022-08-19T03:06:40;21.10;99.90
31675;DHT22;18276;45.520;11.018;2022-08-19T03:09:08;21.20;99.90
31675;DHT22;18276;45.520;11.018;2022-08-19T03:11:36;21.20;99.90
31675;DHT22;18276;45.520;11.018;2022-08-19T03:14:04;21.10;99.90
31675;DHT22;18276;45.520;11.018;2022-08-19T03:16:36;21.10;99.90
31675;DHT22;18276;45.520;11.018;2022-08-19T03:19:06;21.20;99.90
31675;DHT22;18276;45.520;11.018;2022-08-19T03:21:34;21.10;99.90
31675;DHT22;18276;45.520;11.018;2022-08-19T03:24:05;21.10;99.90
31675;DHT22;18276;45.520;11.018;2022-08-19T03:26:33;21.00;99.90
31675;DHT22;18276;45.520;11.018;2022-08-19T03:29:05;21.00;99.90
31675;DHT22;18276;45.520;11.018;2022-08-19T03:31:34;21.00;99.90
31675;DHT22;18276;45.520;11.018;2022-08-19T03:34:22;21.00;99.90
31675;DHT22;18276;45.520;11.018;2022-08-19T03:36:49;21.00;99.90
31675;DHT22;18276;45.520;11.018;2022-08-19T03:39:17;21.00;99.90
31675;DHT22;18276;45.520;11.018;2022-08-19T03:41:45;20.90;99.90
31675;DHT22;18276;45.520;11.018;2022-08-19T03:44:16;20.90;99.90
31675;DHT22;18276;45.520;11.018;2022-08-19T03:46:50;20.90;99.90
31675;DHT22;18276;45.520;11.018;2022-08-19T03:49:18;20.90;99.90
31675;DHT22;18276;45.520;11.018;2022-08-19T03:51:47;20.80;99.90
31675;DHT22;18276;45.520;11.018;2022-08-19T03:54:17;20.80;99.90
31675;DHT22;18276;45.520;11.018;2022-08-19T03:56:47;20.80;99.90
31675;DHT22;18276;45.520;11.018;2022-08-19T03:59:30;20.80;99.90
31675;DHT22;18276;45.520;11.018;2022-08-19T04:02:00;20.80;99.90
31675;DHT22;18276;45.520;11.018;2022-08-19T04:04:27;20.80;99.90
31675;DHT22;18276;45.520;11.018;2022-08-19T04:06:57;20.80;99.90
31675;DHT22;18276;45.520;11.018;2022-08-19T04:09:25;20.90;99.90
31675;DHT22;18276;45.520;11.018;2022-08-19T04:11:54;20.90;99.90
31675;DHT22;18276;45.520;11.018;2022-08-19T04:14:25;20.90;99.90
31675;DHT22;18276;45.520;11.018;2022-08-19T04:16:52;20.90;99.90
31675;DHT22;18276;45.520;11.018;2022-08-19T04:19:20;20.90;99.90
31675;DHT22;18276;45.520;11.018;2022-08-19T04:21:49;20.90;99.90
31675;DHT22;18276;45.520;11.018;2022-08-19T04:24:17;20.90;99.90
31675;DHT22;18276;45.520;11.018;2022-08-19T04:26:45;20.90;99.90
31675;DHT22;18276;45.520;11.018;2022-08-19T04:29:18;21.00;99.90
31675;DHT22;18276;45.520;11.018;2022-08-19T04:31:45;21.00;99.90
31675;DHT22;18276;45.520;11.018;2022-08-19T04:34:15;21.00;99.90
31675;DHT22;18276;45.520;11.018;2022-08-19T04:36:44;21.00;99.90
31675;DHT22;18276;45.520;11.018;2022-08-19T04:39:15;21.10;99.90
31675;DHT22;18276;45.520;11.018;2022-08-19T04:41:43;21.10;99.90
31675;DHT22;18276;45.520;11.018;2022-08-19T04:44:34;21.10;99.90
31675;DHT22;18276;45.520;11.018;2022-08-19T04:47:11;21.10;99.90
31675;DHT22;18276;45.520;11.018;2022-08-19T04:49:38;21.10;99.90
31675;DHT22;18276;45.520;11.018;2022-08-19T04:52:05;21.00;99.90
31675;DHT22;18276;45.520;11.018;2022-08-19T04:54:32;21.10;99.90
31675;DHT22;18276;45.520;11.018;2022-08-19T04:57:06;21.20;99.90
31675;DHT22;18276;45.520;11.018;2022-08-19T04:59:38;21.20;99.90
31675;DHT22;18276;45.520;11.018;2022-08-19T05:02:07;21.30;99.90
31675;DHT22;18276;45.520;11.018;2022-08-19T05:04:36;21.50;99.90
31675;DHT22;18276;45.520;11.018;2022-08-19T05:07:07;21.60;99.90
31675;DHT22;18276;45.520;11.018;2022-08-19T05:09:34;21.80;99.90
31675;DHT22;18276;45.520;11.018;2022-08-19T05:12:21;22.00;99.90
31675;DHT22;18276;45.520;11.018;2022-08-19T05:14:56;22.10;99.90
31675;DHT22;18276;45.520;11.018;2022-08-19T05:17:25;22.20;99.90
31675;DHT22;18276;45.520;11.018;2022-08-19T05:22:45;22.20;99.90
31675;DHT22;18276;45.520;11.018;2022-08-19T05:25:15;22.20;99.90
31675;DHT22;18276;45.520;11.018;2022-08-19T05:27:45;22.20;99.90
31675;DHT22;18276;45.520;11.018;2022-08-19T05:30:13;22.30;99.90
31675;DHT22;18276;45.520;11.018;2022-08-19T05:32:40;22.60;99.90
31675;DHT22;18276;45.520;11.018;2022-08-19T05:35:08;23.10;99.90
31675;DHT22;18276;45.520;11.018;2022-08-19T05:37:36;24.10;99.90
31675;DHT22;18276;45.520;11.018;2022-08-19T05:40:04;25.10;98.90
31675;DHT22;18276;45.520;11.018;2022-08-19T05:42:32;25.90;94.30
31675;DHT22;18276;45.520;11.018;2022-08-19T05:44:58;26.00;90.60
31675;DHT22;18276;45.520;11.018;2022-08-19T05:47:25;25.60;88.70
31675;DHT22;18276;45.520;11.018;2022-08-19T05:49:52;25.20;88.90
31675;DHT22;18276;45.520;11.018;2022-08-19T05:52:19;24.80;89.70
31675;DHT22;18276;45.520;11.018;2022-08-19T05:54:53;24.40;90.40
31675;DHT22;18276;45.520;11.018;2022-08-19T05:57:24;24.10;91.10
31675;DHT22;18276;45.520;11.018;2022-08-19T05:59:51;23.80;91.70
31675;DHT22;18276;45.520;11.018;2022-08-19T06:02:28;23.60;92.10
31675;DHT22;18276;45.520;11.018;2022-08-19T06:04:57;23.50;92.60
31675;DHT22;18276;45.520;11.018;2022-08-19T06:07:24;23.40;93.10
31675;DHT22;18276;45.520;11.018;2022-08-19T06:09:52;23.30;93.60
31675;DHT22;18276;45.520;11.018;2022-08-19T06:12:31;23.10;94.10
31675;DHT22;18276;45.520;11.018;2022-08-19T06:15:11;23.10;94.50
31675;DHT22;18276;45.520;11.018;2022-08-19T06:17:38;23.00;95.00
31675;DHT22;18276;45.520;11.018;2022-08-19T06:20:09;22.90;95.30
31675;DHT22;18276;45.520;11.018;2022-08-19T06:22:41;22.90;95.70
31675;DHT22;18276;45.520;11.018;2022-08-19T06:25:09;22.80;96.10
31675;DHT22;18276;45.520;11.018;2022-08-19T06:27:37;22.70;96.50
31675;DHT22;18276;45.520;11.018;2022-08-19T06:30:24;22.70;96.80
31675;DHT22;18276;45.520;11.018;2022-08-19T06:32:51;22.60;97.30
31675;DHT22;18276;45.520;11.018;2022-08-19T06:35:19;22.60;97.70
31675;DHT22;18276;45.520;11.018;2022-08-19T06:37:46;22.50;97.90
31675;DHT22;18276;45.520;11.018;2022-08-19T06:40:13;22.40;98.40
31675;DHT22;18276;45.520;11.018;2022-08-19T06:42:40;22.30;98.60
31675;DHT22;18276;45.520;11.018;2022-08-19T06:45:20;22.30;98.90
31675;DHT22;18276;45.520;11.018;2022-08-19T06:48:00;22.30;99.90
31675;DHT22;18276;45.520;11.018;2022-08-19T06:50:27;22.20;99.90
31675;DHT22;18276;45.520;11.018;2022-08-19T06:52:54;22.20;99.90
31675;DHT22;18276;45.520;11.018;2022-08-19T06:55:21;22.20;99.90
31675;DHT22;18276;45.520;11.018;2022-08-19T06:57:49;22.10;99.90
31675;DHT22;18276;45.520;11.018;2022-08-19T07:00:20;22.10;99.90
31675;DHT22;18276;45.520;11.018;2022-08-19T07:02:47;22.00;99.90
31675;DHT22;18276;45.520;11.018;2022-08-19T07:05:24;21.90;99.90
31675;DHT22;18276;45.520;11.018;2022-08-19T07:07:51;21.80;99.90
31675;DHT22;18276;45.520;11.018;2022-08-19T07:10:18;21.80;99.90
31675;DHT22;18276;45.520;11.018;2022-08-19T07:12:45;21.70;99.90
31675;DHT22;18276;45.520;11.018;2022-08-19T07:15:14;21.70;99.90
31675;DHT22;18276;45.520;11.018;2022-08-19T07:17:44;21.60;99.90
31675;DHT22;18276;45.520;11.018;2022-08-19T07:20:15;21.60;99.90
31675;DHT22;18276;45.520;11.018;2022-08-19T07:22:44;21.50;99.90
31675;DHT22;18276;45.520;11.018;2022-08-19T07:25:12;21.40;99.90
31675;DHT22;18276;45.520;11.018;2022-08-19T07:27:40;21.30;99.90
31675;DHT22;18276;45.520;11.018;2022-08-19T07:30:12;21.20;99.90
31675;DHT22;18276;45.520;11.018;2022-08-19T07:32:40;21.10;99.90
31675;DHT22;18276;45.520;11.018;2022-08-19T07:35:07;21.10;99.90
31675;DHT22;18276;45.520;11.018;2022-08-19T07:37:36;21.10;99.90
31675;DHT22;18276;45.520;11.018;2022-08-19T07:40:05;21.00;99.90
31675;DHT22;18276;45.520;11.018;2022-08-19T07:42:33;21.00;99.90
31675;DHT22;18276;45.520;11.018;2022-08-19T07:45:00;21.00;99.90
31675;DHT22;18276;45.520;11.018;2022-08-19T07:47:27;21.00;99.90
31675;DHT22;18276;45.520;11.018;2022-08-19T07:50:15;21.00;99.90
31675;DHT22;18276;45.520;11.018;2022-08-19T07:52:42;21.00;99.90
31675;DHT22;18276;45.520;11.018;2022-08-19T07:55:17;20.90;99.90
31675;DHT22;18276;45.520;11.018;2022-08-19T07:58:04;20.90;99.90
31675;DHT22;18276;45.520;11.018;2022-08-19T08:00:32;21.00;99.90
31675;DHT22;18276;45.520;11.018;2022-08-19T08:02:59;21.00;99.90
31675;DHT22;18276;45.520;11.018;2022-08-19T08:05:26;21.10;99.90
31675;DHT22;18276;45.520;11.018;2022-08-19T08:08:12;21.20;99.90
31675;DHT22;18276;45.520;11.018;2022-08-19T08:10:59;21.20;99.90
31675;DHT22;18276;45.520;11.018;2022-08-19T08:13:26;21.20;99.90
31675;DHT22;18276;45.520;11.018;2022-08-19T08:15:55;21.30;99.90
31675;DHT22;18276;45.520;11.018;2022-08-19T08:18:24;21.30;99.90
31675;DHT22;18276;45.520;11.018;2022-08-19T08:20:55;21.40;99.90
31675;DHT22;18276;45.520;11.018;2022-08-19T08:23:23;21.40;99.90
31675;DHT22;18276;45.520;11.018;2022-08-19T08:25:56;21.40;99.90
31675;DHT22;18276;45.520;11.018;2022-08-19T08:28:25;21.40;99.90
31675;DHT22;18276;45.520;11.018;2022-08-19T08:30:56;21.40;99.90
31675;DHT22;18276;45.520;11.018;2022-08-19T08:33:26;21.30;99.90
31675;DHT22;18276;45.520;11.018;2022-08-19T08:36:07;21.30;99.90
31675;DHT22;18276;45.520;11.018;2022-08-19T08:38:34;21.30;99.90
31675;DHT22;18276;45.520;11.018;2022-08-19T08:41:28;21.30;99.90
31675;DHT22;18276;45.520;11.018;2022-08-19T08:43:58;21.30;99.90
31675;DHT22;18276;45.520;11.018;2022-08-19T08:46:39;21.30;99.90
31675;DHT22;18276;45.520;11.018;2022-08-19T08:52:24;21.30;99.90
31675;DHT22;18276;45.520;11.018;2022-08-19T08:54:59;21.30;99.90
31675;DHT22;18276;45.520;11.018;2022-08-19T09:00:52;21.30;99.90
31675;DHT22;18276;45.520;11.018;2022-08-19T09:03:25;21.20;99.90
31675;DHT22;18276;45.520;11.018;2022-08-19T09:06:07;21.20;99.90
31675;DHT22;18276;45.520;11.018;2022-08-19T09:08:56;21.00;99.90
31675;DHT22;18276;45.520;11.018;2022-08-19T09:17:16;20.80;99.90
31675;DHT22;18276;45.520;11.018;2022-08-19T09:22:37;20.90;99.90
31675;DHT22;18276;45.520;11.018;2022-08-19T09:25:08;20.90;99.90
31675;DHT22;18276;45.520;11.018;2022-08-19T09:27:37;20.90;99.90
31675;DHT22;18276;45.520;11.018;2022-08-19T09:30:23;20.90;99.90
31675;DHT22;18276;45.520;11.018;2022-08-19T09:32:51;21.00;99.90
31675;DHT22;18276;45.520;11.018;2022-08-19T09:35:24;21.00;99.90
31675;DHT22;18276;45.520;11.018;2022-08-19T09:37:54;21.10;99.90
31675;DHT22;18276;45.520;11.018;2022-08-19T09:40:27;21.20;99.90
31675;DHT22;18276;45.520;11.018;2022-08-19T09:42:56;21.30;99.90
31675;DHT22;18276;45.520;11.018;2022-08-19T09:45:24;21.40;99.90
31675;DHT22;18276;45.520;11.018;2022-08-19T09:47:52;21.60;99.90
31675;DHT22;18276;45.520;11.018;2022-08-19T09:50:22;21.70;99.90
31675;DHT22;18276;45.520;11.018;2022-08-19T09:52:50;21.90;99.90
31675;DHT22;18276;45.520;11.018;2022-08-19T09:55:24;22.00;99.90
31675;DHT22;18276;45.520;11.018;2022-08-19T09:58:02;22.10;99.90
31675;DHT22;18276;45.520;11.018;2022-08-19T10:00:29;22.30;99.90
31675;DHT22;18276;45.520;11.018;2022-08-19T10:02:57;22.40;99.90
31675;DHT22;18276;45.520;11.018;2022-08-19T10:05:25;22.50;99.90
31675;DHT22;18276;45.520;11.018;2022-08-19T10:08:20;22.60;99.90
31675;DHT22;18276;45.520;11.018;2022-08-19T10:10:52;22.70;99.90
31675;DHT22;18276;45.520;11.018;2022-08-19T10:13:22;22.80;99.90
31675;DHT22;18276;45.520;11.018;2022-08-19T10:15:56;22.80;99.90
31675;DHT22;18276;45.520;11.018;2022-08-19T10:18:24;22.80;99.90
31675;DHT22;18276;45.520;11.018;2022-08-19T10:21:01;22.80;99.90
31675;DHT22;18276;45.520;11.018;2022-08-19T10:23:30;22.90;99.90
31675;DHT22;18276;45.520;11.018;2022-08-19T10:26:01;22.90;99.90
31675;DHT22;18276;45.520;11.018;2022-08-19T10:28:28;23.10;99.90
31675;DHT22;18276;45.520;11.018;2022-08-19T10:30:56;23.20;99.90
31675;DHT22;18276;45.520;11.018;2022-08-19T10:33:23;23.20;99.90
31675;DHT22;18276;45.520;11.018;2022-08-19T10:36:20;23.30;99.90
31675;DHT22;18276;45.520;11.018;2022-08-19T10:38:51;23.40;99.90
31675;DHT22;18276;45.520;11.018;2022-08-19T10:41:25;23.50;99.90
31675;DHT22;18276;45.520;11.018;2022-08-19T10:43:58;23.60;99.90
31675;DHT22;18276;45.520;11.018;2022-08-19T10:46:30;23.60;99.90
31675;DHT22;18276;45.520;11.018;2022-08-19T10:49:01;23.60;99.90
31675;DHT22;18276;45.520;11.018;2022-08-19T10:51:29;23.70;99.90
31675;DHT22;18276;45.520;11.018;2022-08-19T10:54:15;23.80;99.90
31675;DHT22;18276;45.520;11.018;2022-08-19T10:56:57;24.00;99.90
31675;DHT22;18276;45.520;11.018;2022-08-19T10:59:27;24.40;99.90
31675;DHT22;18276;45.520;11.018;2022-08-19T11:02:03;24.80;99.90
31675;DHT22;18276;45.520;11.018;2022-08-19T11:04:30;25.30;99.90
31675;DHT22;18276;45.520;11.018;2022-08-19T11:06:58;25.80;99.90
31675;DHT22;18276;45.520;11.018;2022-08-19T11:09:26;26.30;98.80
31675;DHT22;18276;45.520;11.018;2022-08-19T11:12:00;26.50;95.40
31675;DHT22;18276;45.520;11.018;2022-08-19T11:14:30;26.60;93.60
31675;DHT22;18276;45.520;11.018;2022-08-19T11:17:01;26.80;92.90
31675;DHT22;18276;45.520;11.018;2022-08-19T11:19:28;26.90;93.30
31675;DHT22;18276;45.520;11.018;2022-08-19T11:21:56;27.40;93.10
31675;DHT22;18276;45.520;11.018;2022-08-19T11:24:25;27.80;90.60
31675;DHT22;18276;45.520;11.018;2022-08-19T11:27:00;27.70;87.30
31675;DHT22;18276;45.520;11.018;2022-08-19T11:29:28;27.30;86.90
31675;DHT22;18276;45.520;11.018;2022-08-19T11:31:56;27.00;86.00
31675;DHT22;18276;45.520;11.018;2022-08-19T11:34:25;26.90;86.10
31675;DHT22;18276;45.520;11.018;2022-08-19T11:36:55;26.80;84.50
31675;DHT22;18276;45.520;11.018;2022-08-19T11:39:27;26.60;84.40
31675;DHT22;18276;45.520;11.018;2022-08-19T11:41:55;26.30;85.80
31675;DHT22;18276;45.520;11.018;2022-08-19T11:44:22;26.10;87.70
31675;DHT22;18276;45.520;11.018;2022-08-19T11:46:50;26.00;89.00
31675;DHT22;18276;45.520;11.018;2022-08-19T11:49:19;25.90;89.70
31675;DHT22;18276;45.520;11.018;2022-08-19T11:51:47;25.80;90.40
31675;DHT22;18276;45.520;11.018;2022-08-19T11:54:15;25.80;90.40
31675;DHT22;18276;45.520;11.018;2022-08-19T11:56:43;25.80;89.40
31675;DHT22;18276;45.520;11.018;2022-08-19T11:59:11;25.60;90.20
31675;DHT22;18276;45.520;11.018;2022-08-19T12:01:40;25.50;91.30
31675;DHT22;18276;45.520;11.018;2022-08-19T12:04:10;25.70;91.40
31675;DHT22;18276;45.520;11.018;2022-08-19T12:06:39;25.80;91.30
31675;DHT22;18276;45.520;11.018;2022-08-19T12:09:08;26.30;90.90
31675;DHT22;18276;45.520;11.018;2022-08-19T12:11:37;27.00;88.80
31675;DHT22;18276;45.520;11.018;2022-08-19T12:14:06;27.40;85.70
31675;DHT22;18276;45.520;11.018;2022-08-19T12:16:33;27.80;83.30
31675;DHT22;18276;45.520;11.018;2022-08-19T12:19:05;27.90;80.40
31675;DHT22;18276;45.520;11.018;2022-08-19T12:21:34;27.90;80.60
31675;DHT22;18276;45.520;11.018;2022-08-19T12:24:04;28.10;80.40
31675;DHT22;18276;45.520;11.018;2022-08-19T12:26:33;28.20;76.20
31675;DHT22;18276;45.520;11.018;2022-08-19T12:29:18;28.20;75.80
31675;DHT22;18276;45.520;11.018;2022-08-19T12:31:49;28.40;76.10
31675;DHT22;18276;45.520;11.018;2022-08-19T12:34:16;28.80;76.70
31675;DHT22;18276;45.520;11.018;2022-08-19T12:36:43;29.40;73.90
31675;DHT22;18276;45.520;11.018;2022-08-19T12:39:10;30.00;71.70
31675;DHT22;18276;45.520;11.018;2022-08-19T12:41:39;30.90;71.30
31675;DHT22;18276;45.520;11.018;2022-08-19T12:44:17;32.10;68.70
31675;DHT22;18276;45.520;11.018;2022-08-19T12:46:46;33.20;63.20
31675;DHT22;18276;45.520;11.018;2022-08-19T12:49:19;34.00;59.80
31675;DHT22;18276;45.520;11.018;2022-08-19T12:52:08;34.80;57.40
31675;DHT22;18276;45.520;11.018;2022-08-19T12:54:36;35.00;55.70
31675;DHT22;18276;45.520;11.018;2022-08-19T12:57:08;34.90;54.40
31675;DHT22;18276;45.520;11.018;2022-08-19T12:59:36;34.40;54.40
31675;DHT22;18276;45.520;11.018;2022-08-19T13:02:05;34.10;55.00
31675;DHT22;18276;45.520;11.018;2022-08-19T13:04:33;34.30;55.40
31675;DHT22;18276;45.520;11.018;2022-08-19T13:07:07;34.70;54.50
31675;DHT22;18276;45.520;11.018;2022-08-19T13:09:35;35.30;53.80
31675;DHT22;18276;45.520;11.018;2022-08-19T13:12:03;35.80;52.70
31675;DHT22;18276;45.520;11.018;2022-08-19T13:14:34;36.40;51.00
31675;DHT22;18276;45.520;11.018;2022-08-19T13:17:02;36.50;49.80
31675;DHT22;18276;45.520;11.018;2022-08-19T13:19:29;36.40;49.00
31675;DHT22;18276;45.520;11.018;2022-08-19T13:21:58;35.90;48.00
31675;DHT22;18276;45.520;11.018;2022-08-19T13:24:26;35.50;50.00
31675;DHT22;18276;45.520;11.018;2022-08-19T13:27:00;35.30;49.10
31675;DHT22;18276;45.520;11.018;2022-08-19T13:29:27;34.90;49.70
31675;DHT22;18276;45.520;11.018;2022-08-19T13:32:13;34.40;50.10
31675;DHT22;18276;45.520;11.018;2022-08-19T13:34:58;33.80;50.70
31675;DHT22;18276;45.520;11.018;2022-08-19T13:37:25;33.60;51.20
31675;DHT22;18276;45.520;11.018;2022-08-19T13:40:19;33.40;51.40
31675;DHT22;18276;45.520;11.018;2022-08-19T13:42:50;33.20;52.50
31675;DHT22;18276;45.520;11.018;2022-08-19T13:45:20;33.10;52.30
31675;DHT22;18276;45.520;11.018;2022-08-19T13:47:50;33.20;52.00
31675;DHT22;18276;45.520;11.018;2022-08-19T13:50:27;33.30;51.70
31675;DHT22;18276;45.520;11.018;2022-08-19T13:52:55;33.00;51.00
31675;DHT22;18276;45.520;11.018;2022-08-19T13:55:23;32.80;51.60
31675;DHT22;18276;45.520;11.018;2022-08-19T13:57:56;32.70;51.70
31675;DHT22;18276;45.520;11.018;2022-08-19T14:00:26;32.60;51.70
31675;DHT22;18276;45.520;11.018;2022-08-19T14:02:55;32.50;52.10
31675;DHT22;18276;45.520;11.018;2022-08-19T14:05:25;32.30;52.90
31675;DHT22;18276;45.520;11.018;2022-08-19T14:07:52;32.30;53.20
31675;DHT22;18276;45.520;11.018;2022-08-19T14:10:20;32.10;54.30
31675;DHT22;18276;45.520;11.018;2022-08-19T14:12:47;31.90;54.20
31675;DHT22;18276;45.520;11.018;2022-08-19T14:15:15;31.60;54.90
31675;DHT22;18276;45.520;11.018;2022-08-19T14:17:44;31.70;55.30
31675;DHT22;18276;45.520;11.018;2022-08-19T14:20:13;31.70;55.40
31675;DHT22;18276;45.520;11.018;2022-08-19T14:22:46;31.80;55.40
31675;DHT22;18276;45.520;11.018;2022-08-19T14:25:19;31.70;54.70
31675;DHT22;18276;45.520;11.018;2022-08-19T14:27:48;31.40;55.20
31675;DHT22;18276;45.520;11.018;2022-08-19T14:30:19;31.10;56.00
31675;DHT22;18276;45.520;11.018;2022-08-19T14:32:46;30.60;56.50
31675;DHT22;18276;45.520;11.018;2022-08-19T14:35:15;30.40;57.40
31675;DHT22;18276;45.520;11.018;2022-08-19T14:37:44;30.30;57.30
31675;DHT22;18276;45.520;11.018;2022-08-19T14:40:23;30.10;57.90
31675;DHT22;18276;45.520;11.018;2022-08-19T14:42:55;30.00;58.30
31675;DHT22;18276;45.520;11.018;2022-08-19T14:45:26;29.90;58.20
31675;DHT22;18276;45.520;11.018;2022-08-19T14:47:54;29.80;59.00
31675;DHT22;18276;45.520;11.018;2022-08-19T14:50:22;30.00;59.20
31675;DHT22;18276;45.520;11.018;2022-08-19T14:52:49;30.30;58.80
31675;DHT22;18276;45.520;11.018;2022-08-19T14:55:17;30.40;58.20
31675;DHT22;18276;45.520;11.018;2022-08-19T14:57:44;30.40;57.90
31675;DHT22;18276;45.520;11.018;2022-08-19T15:00:13;30.30;57.60
31675;DHT22;18276;45.520;11.018;2022-08-19T15:02:41;30.10;58.80
31675;DHT22;18276;45.520;11.018;2022-08-19T15:05:08;29.90;59.70
31675;DHT22;18276;45.520;11.018;2022-08-19T15:07:36;29.90;60.60
31675;DHT22;18276;45.520;11.018;2022-08-19T15:10:04;29.90;59.80
31675;DHT22;18276;45.520;11.018;2022-08-19T15:12:38;29.80;59.70
31675;DHT22;18276;45.520;11.018;2022-08-19T15:15:11;29.70;60.00
31675;DHT22;18276;45.520;11.018;2022-08-19T15:17:44;29.40;60.70
31675;DHT22;18276;45.520;11.018;2022-08-19T15:20:19;29.20;61.70
31675;DHT22;18276;45.520;11.018;2022-08-19T15:22:48;29.00;62.50
31675;DHT22;18276;45.520;11.018;2022-08-19T15:25:17;28.70;63.10
31675;DHT22;18276;45.520;11.018;2022-08-19T15:27:45;28.50;64.40
31675;DHT22;18276;45.520;11.018;2022-08-19T15:30:20;28.30;65.20
31675;DHT22;18276;45.520;11.018;2022-08-19T15:32:48;28.10;66.10
31675;DHT22;18276;45.520;11.018;2022-08-19T15:35:15;27.90;66.30
31675;DHT22;18276;45.520;11.018;2022-08-19T15:37:48;27.80;66.40
31675;DHT22;18276;45.520;11.018;2022-08-19T15:40:16;27.70;66.70
31675;DHT22;18276;45.520;11.018;2022-08-19T15:42:44;27.60;67.00
31675;DHT22;18276;45.520;11.018;2022-08-19T15:45:13;27.50;67.70
31675;DHT22;18276;45.520;11.018;2022-08-19T15:47:40;27.40;68.00
31675;DHT22;18276;45.520;11.018;2022-08-19T15:50:19;27.40;68.50
31675;DHT22;18276;45.520;11.018;2022-08-19T15:52:53;27.40;68.60
31675;DHT22;18276;45.520;11.018;2022-08-19T15:55:23;27.30;68.90
31675;DHT22;18276;45.520;11.018;2022-08-19T15:58:20;27.30;69.00